createdAt,value
2022-10-01T00:02:51.437Z,8.97
2022-10-01T00:06:16.591Z,8.43
2022-10-01T00:09:38.506Z,8.23
2022-10-01T00:13:00.200Z,8.30
2022-10-01T00:16:25.474Z,8.60
2022-10-01T00:19:46.866Z,7.67
2022-10-01T00:23:08.180Z,9.23
2022-10-01T00:26:31.906Z,8.60
2022-10-01T00:29:53.936Z,8.20
2022-10-01T00:33:16.678Z,8.40
2022-10-01T00:36:38.216Z,8.43
2022-10-01T00:39:59.304Z,7.97
2022-10-01T00:43:21.922Z,7.83
2022-10-01T00:46:46.548Z,7.87
2022-10-01T00:50:17.199Z,7.50
2022-10-01T00:53:39.625Z,7.80
2022-10-01T00:57:04.024Z,7.47
2022-10-01T01:00:26.211Z,7.50
2022-10-01T01:03:48.267Z,8.30
2022-10-01T01:07:11.503Z,7.73
2022-10-01T01:10:45.357Z,8.77
2022-10-01T01:14:16.772Z,8.20
2022-10-01T01:17:49.199Z,8.00
2022-10-01T01:21:22.294Z,9.10
2022-10-01T01:24:52.190Z,8.17
2022-10-01T01:28:23.967Z,8.50
2022-10-01T01:31:47.586Z,8.83
2022-10-01T01:35:12.531Z,8.97
2022-10-01T01:38:38.548Z,8.30
2022-10-01T01:42:05.850Z,8.40
2022-10-01T01:45:31.736Z,8.93
2022-10-01T01:48:54.470Z,8.43
2022-10-01T01:52:17.414Z,9.30
2022-10-01T01:55:40.032Z,9.63
2022-10-01T01:59:02.009Z,8.93
2022-10-01T02:02:28.803Z,9.20
2022-10-01T02:06:00.912Z,9.07
2022-10-01T02:09:30.462Z,8.33
2022-10-01T02:13:07.131Z,8.30
2022-10-01T02:16:34.765Z,8.63
2022-10-01T02:20:01.491Z,9.20
2022-10-01T02:23:28.037Z,8.47
2022-10-01T02:26:51.767Z,9.20
2022-10-01T02:30:15.286Z,17.97
2022-10-01T02:33:38.165Z,12.00
2022-10-01T02:37:05.402Z,10.40
2022-10-01T02:40:29.348Z,11.10
2022-10-01T02:43:57.801Z,10.47
2022-10-01T02:47:22.516Z,10.33
2022-10-01T02:50:49.990Z,9.47
2022-10-01T02:54:21.021Z,9.83
2022-10-01T02:57:43.375Z,10.70
2022-10-01T03:01:06.170Z,10.63
2022-10-01T03:04:28.003Z,10.40
2022-10-01T03:07:49.978Z,10.10
2022-10-01T03:11:12.584Z,10.30
2022-10-01T03:14:34.520Z,10.53
2022-10-01T03:17:56.084Z,10.27
2022-10-01T03:21:17.702Z,10.20
2022-10-01T03:24:38.982Z,10.83
2022-10-01T03:28:02.591Z,10.67
2022-10-01T03:31:24.393Z,12.10
2022-10-01T03:34:46.188Z,11.17
2022-10-01T03:38:08.298Z,11.73
2022-10-01T03:41:29.884Z,11.67
2022-10-01T03:44:53.010Z,12.40
2022-10-01T03:48:14.780Z,13.50
2022-10-01T03:51:37.496Z,13.63
2022-10-01T03:55:00.665Z,12.97
2022-10-01T03:58:23.328Z,12.63
2022-10-01T04:01:46.292Z,12.90
2022-10-01T04:05:08.875Z,12.43
2022-10-01T04:08:30.526Z,12.07
2022-10-01T04:11:52.915Z,11.50
2022-10-01T04:15:15.275Z,11.93
2022-10-01T04:18:38.574Z,10.63
2022-10-01T04:22:00.475Z,11.43
2022-10-01T04:25:22.081Z,11.47
2022-10-01T04:28:45.183Z,11.00
2022-10-01T04:32:07.116Z,10.37
2022-10-01T04:35:30.525Z,9.50
2022-10-01T04:38:53.987Z,10.40
2022-10-01T04:42:18.354Z,9.40
2022-10-01T04:45:39.870Z,9.67
2022-10-01T04:49:01.496Z,8.83
2022-10-01T04:52:24.659Z,9.97
2022-10-01T04:55:46.620Z,9.40
2022-10-01T04:59:07.978Z,9.03
2022-10-01T05:02:29.412Z,8.97
2022-10-01T05:05:50.781Z,8.57
2022-10-01T05:09:13.691Z,8.93
2022-10-01T05:12:35.040Z,8.57
2022-10-01T05:15:56.554Z,9.10
2022-10-01T05:19:18.335Z,7.90
2022-10-01T05:23:06.737Z,8.77
2022-10-01T05:26:29.660Z,7.70
2022-10-01T05:29:51.112Z,8.60
2022-10-01T05:33:12.561Z,8.30
2022-10-01T05:36:34.363Z,8.13
2022-10-01T05:39:58.550Z,7.80
2022-10-01T05:43:21.234Z,8.20
2022-10-01T05:46:43.658Z,7.50
2022-10-01T05:50:05.503Z,7.50
2022-10-01T05:53:27.491Z,7.70
2022-10-01T05:56:49.197Z,8.00
2022-10-01T06:00:14.701Z,8.07
2022-10-01T06:03:36.525Z,8.67
2022-10-01T06:06:57.984Z,7.63
2022-10-01T06:10:20.276Z,7.33
2022-10-01T06:13:45.140Z,8.20
2022-10-01T06:17:07.978Z,7.60
2022-10-01T06:20:29.401Z,7.93
2022-10-01T06:23:51.960Z,7.27
2022-10-01T06:27:13.653Z,7.33
2022-10-01T06:30:38.384Z,7.27
2022-10-01T06:34:01.763Z,7.83
2022-10-01T06:37:23.542Z,7.03
2022-10-01T06:40:45.275Z,7.43
2022-10-01T06:44:06.567Z,7.20
2022-10-01T06:47:28.140Z,7.43
2022-10-01T06:50:52.197Z,6.70
2022-10-01T06:54:14.574Z,7.23
2022-10-01T06:57:36.184Z,7.35
2022-10-01T07:01:00.115Z,7.23
2022-10-01T07:04:21.990Z,7.07
2022-10-01T07:07:45.578Z,6.63
2022-10-01T07:11:07.460Z,6.85
2022-10-01T07:14:28.912Z,6.40
2022-10-01T07:17:51.833Z,6.78
2022-10-01T07:21:13.582Z,6.47
2022-10-01T07:24:36.363Z,7.05
2022-10-01T07:27:59.922Z,6.85
2022-10-01T07:31:22.168Z,6.50
2022-10-01T07:34:43.853Z,7.00
2022-10-01T07:38:07.437Z,6.40
2022-10-01T07:41:30.578Z,6.68
2022-10-01T07:44:51.875Z,6.53
2022-10-01T07:48:14.896Z,6.68
2022-10-01T07:51:36.717Z,6.72
2022-10-01T07:54:58.500Z,6.60
2022-10-01T07:58:24.074Z,6.47
2022-10-01T08:01:51.676Z,6.10
2022-10-01T08:05:19.014Z,6.97
2022-10-01T08:08:40.440Z,7.00
2022-10-01T08:12:02.774Z,6.65
2022-10-01T08:15:25.474Z,6.80
2022-10-01T08:18:46.560Z,6.70
2022-10-01T08:22:08.233Z,6.30
2022-10-01T08:25:29.999Z,6.28
2022-10-01T08:28:51.372Z,6.15
2022-10-01T08:32:14.554Z,6.28
2022-10-01T08:35:39.067Z,6.18
2022-10-01T08:39:02.638Z,6.30
2022-10-01T08:42:48.713Z,5.88
2022-10-01T08:46:17.932Z,5.88
2022-10-01T08:49:47.398Z,6.43
2022-10-01T08:53:16.620Z,5.95
2022-10-01T08:56:44.461Z,6.05
2022-10-01T09:00:12.884Z,6.45
2022-10-01T09:03:35.040Z,6.38
2022-10-01T09:07:05.720Z,5.43
2022-10-01T09:10:42.214Z,5.78
2022-10-01T09:14:36.762Z,5.80
2022-10-01T09:18:15.792Z,5.70
2022-10-01T09:21:48.386Z,5.97
2022-10-01T09:25:18.238Z,5.07
2022-10-01T09:28:41.899Z,5.22
2022-10-01T09:32:06.360Z,5.43
2022-10-01T09:35:38.221Z,5.13
2022-10-01T09:39:10.929Z,5.05
2022-10-01T09:42:34.047Z,5.10
2022-10-01T09:45:56.636Z,5.18
2022-10-01T09:49:31.002Z,4.93
2022-10-01T09:52:54.796Z,5.30
2022-10-01T09:56:23.495Z,5.00
2022-10-01T09:59:53.072Z,5.05
2022-10-01T10:03:23.836Z,4.70
2022-10-01T10:06:45.581Z,4.70
2022-10-01T10:10:17.062Z,4.30
2022-10-01T10:13:41.838Z,4.60
2022-10-01T10:17:12.823Z,4.20
2022-10-01T10:20:40.427Z,3.95
2022-10-01T10:24:03.913Z,4.20
2022-10-01T10:27:28.465Z,4.00
2022-10-01T10:30:51.871Z,3.30
2022-10-01T10:34:17.744Z,3.22
2022-10-01T10:37:47.390Z,3.30
2022-10-01T10:41:19.593Z,3.05
2022-10-01T10:44:44.725Z,2.88
2022-10-01T10:48:13.788Z,2.90
2022-10-01T10:51:53.536Z,3.08
2022-10-01T10:55:23.420Z,2.75
2022-10-01T10:58:45.238Z,2.78
2022-10-01T11:02:16.015Z,2.70
2022-10-01T11:05:42.999Z,2.10
2022-10-01T11:09:11.727Z,2.22
2022-10-01T11:12:49.839Z,2.25
2022-10-01T11:16:29.555Z,2.17
2022-10-01T11:20:10.695Z,3.40
2022-10-01T11:23:51.516Z,2.83
2022-10-01T11:27:24.308Z,2.80
2022-10-01T11:30:58.860Z,2.40
2022-10-01T11:34:40.584Z,3.03
2022-10-01T11:38:26.585Z,3.00
2022-10-01T11:41:53.750Z,3.63
2022-10-01T11:45:22.422Z,3.10
2022-10-01T11:48:48.884Z,3.20
2022-10-01T11:52:18.630Z,3.72
2022-10-01T11:56:01.657Z,3.70
2022-10-01T11:59:28.374Z,3.30
2022-10-01T12:02:57.167Z,4.47
2022-10-01T12:06:25.286Z,3.72
2022-10-01T12:09:59.306Z,3.65
2022-10-01T12:13:28.945Z,3.60
2022-10-01T12:16:54.840Z,3.22
2022-10-01T12:20:24.262Z,3.45
2022-10-01T12:23:50.968Z,3.58
2022-10-01T12:27:30.411Z,3.90
2022-10-01T12:30:59.164Z,3.58
2022-10-01T12:34:30.298Z,4.03
2022-10-01T12:38:08.657Z,4.45
2022-10-01T12:41:48.195Z,3.40
2022-10-01T12:45:26.069Z,3.00
2022-10-01T12:48:59.662Z,3.22
2022-10-01T12:52:33.808Z,3.58
2022-10-01T12:56:02.322Z,3.40
2022-10-01T12:59:46.893Z,3.42
2022-10-01T13:03:28.629Z,3.38
2022-10-01T13:07:03.075Z,3.50
2022-10-01T13:10:46.108Z,3.38
2022-10-01T13:14:14.430Z,3.35
2022-10-01T13:17:43.360Z,3.47
2022-10-01T13:21:12.973Z,3.47
2022-10-01T13:24:41.821Z,5.00
2022-10-01T13:28:12.561Z,3.72
2022-10-01T13:31:40.234Z,3.17
2022-10-01T13:35:21.944Z,2.83
2022-10-01T13:38:45.066Z,2.78
2022-10-01T13:42:07.278Z,2.85
2022-10-01T13:45:34.229Z,3.30
2022-10-01T13:48:59.389Z,3.00
2022-10-01T13:52:21.925Z,2.65
2022-10-01T13:55:46.075Z,2.60
2022-10-01T13:59:28.729Z,2.95
2022-10-01T14:03:02.919Z,2.55
2022-10-01T14:06:30.809Z,3.35
2022-10-01T14:09:55.836Z,2.75
2022-10-01T14:13:40.539Z,2.22
2022-10-01T14:17:02.518Z,3.17
2022-10-01T14:20:28.219Z,2.35
2022-10-01T14:23:58.749Z,2.75
2022-10-01T14:27:26.848Z,2.97
2022-10-01T14:30:56.050Z,3.10
2022-10-01T14:34:35.772Z,2.40
2022-10-01T14:38:02.438Z,3.33
2022-10-01T14:41:26.925Z,3.10
2022-10-01T14:44:48.841Z,3.30
2022-10-01T14:48:11.334Z,3.10
2022-10-01T14:51:32.746Z,3.33
2022-10-01T14:55:01.725Z,3.03
2022-10-01T14:58:31.109Z,2.85
2022-10-01T15:01:59.427Z,3.65
2022-10-01T15:05:26.348Z,4.85
2022-10-01T15:08:49.773Z,3.15
2022-10-01T15:12:12.827Z,2.83
2022-10-01T15:15:41.737Z,3.30
2022-10-01T15:19:07.582Z,3.08
2022-10-01T15:22:30.871Z,4.10
2022-10-01T15:25:53.284Z,3.28
2022-10-01T15:29:16.937Z,3.15
2022-10-01T15:32:40.128Z,3.10
2022-10-01T15:36:04.302Z,3.42
2022-10-01T15:39:31.170Z,3.70
2022-10-01T15:43:25.529Z,3.50
2022-10-01T15:46:47.592Z,2.90
2022-10-01T15:50:20.024Z,3.42
2022-10-01T15:53:42.003Z,3.28
2022-10-01T15:57:04.856Z,3.33
2022-10-01T16:00:28.770Z,3.13
2022-10-01T16:03:54.571Z,3.42
2022-10-01T16:07:23.098Z,3.03
2022-10-01T16:10:45.246Z,2.70
2022-10-01T16:14:23.694Z,3.03
2022-10-01T16:17:55.832Z,2.80
2022-10-01T16:21:17.381Z,2.78
2022-10-01T16:24:45.056Z,2.45
2022-10-01T16:28:23.177Z,2.60
2022-10-01T16:31:46.318Z,2.42
2022-10-01T16:35:19.940Z,2.90
2022-10-01T16:38:41.389Z,2.55
2022-10-01T16:42:23.365Z,2.40
2022-10-01T16:45:46.252Z,2.65
2022-10-01T16:49:13.690Z,3.05
2022-10-01T16:52:35.318Z,3.20
2022-10-01T16:55:58.161Z,4.15
2022-10-01T16:59:22.400Z,4.15
2022-10-01T17:02:45.001Z,3.88
2022-10-01T17:06:06.546Z,3.58
2022-10-01T17:09:28.406Z,4.28
2022-10-01T17:12:50.478Z,3.65
2022-10-01T17:16:13.259Z,4.10
2022-10-01T17:19:35.091Z,2.90
2022-10-01T17:22:57.278Z,2.50
2022-10-01T17:26:18.943Z,2.85
2022-10-01T17:29:40.298Z,3.22
2022-10-01T17:33:03.098Z,3.05
2022-10-01T17:36:24.727Z,2.95
2022-10-01T17:39:46.001Z,3.17
2022-10-01T17:43:07.719Z,2.80
2022-10-01T17:46:30.704Z,3.22
2022-10-01T17:49:53.549Z,2.80
2022-10-01T17:53:15.731Z,2.78
2022-10-01T17:56:38.826Z,3.20
2022-10-01T18:00:00.129Z,2.70
2022-10-01T18:03:22.091Z,2.92
2022-10-01T18:06:48.723Z,2.58
2022-10-01T18:10:12.845Z,3.25
2022-10-01T18:13:34.875Z,2.95
2022-10-01T18:16:56.476Z,4.50
2022-10-01T18:20:18.363Z,3.70
2022-10-01T18:23:41.463Z,4.05
2022-10-01T18:27:02.972Z,3.13
2022-10-01T18:30:24.624Z,4.00
2022-10-01T18:33:48.737Z,4.53
2022-10-01T18:37:23.336Z,5.03
2022-10-01T18:40:50.055Z,5.78
2022-10-01T18:44:19.990Z,6.78
2022-10-01T18:47:53.246Z,5.93
2022-10-01T18:51:26.303Z,4.78
2022-10-01T18:54:58.448Z,4.45
2022-10-01T18:58:38.045Z,4.20
2022-10-01T19:02:14.763Z,3.90
2022-10-01T19:06:04.495Z,3.63
2022-10-01T19:09:33.792Z,4.03
2022-10-01T19:13:05.483Z,3.60
2022-10-01T19:16:40.556Z,3.72
2022-10-01T19:20:16.007Z,4.60
2022-10-01T19:24:20.678Z,3.63
2022-10-01T19:27:55.119Z,4.47
2022-10-01T19:31:25.994Z,4.25
2022-10-01T19:34:54.724Z,3.78
2022-10-01T19:38:21.049Z,3.55
2022-10-01T19:41:48.397Z,4.35
2022-10-01T19:45:21.355Z,3.50
2022-10-01T19:48:49.762Z,3.55
2022-10-01T19:52:16.623Z,3.25
2022-10-01T19:55:38.998Z,3.85
2022-10-01T19:59:03.156Z,3.95
2022-10-01T20:02:35.253Z,4.18
2022-10-01T20:06:00.363Z,4.18
2022-10-01T20:09:29.355Z,3.47
2022-10-01T20:13:02.924Z,3.67
2022-10-01T20:16:29.701Z,3.60
2022-10-01T20:19:59.746Z,3.50
2022-10-01T20:23:40.308Z,3.00
2022-10-01T20:27:18.760Z,3.25
2022-10-01T20:30:50.793Z,3.63
2022-10-01T20:34:23.040Z,3.92
2022-10-01T20:37:56.717Z,3.33
2022-10-01T20:41:20.626Z,3.90
2022-10-01T20:44:44.158Z,3.35
2022-10-01T20:48:12.440Z,3.90
2022-10-01T20:51:38.332Z,3.38
2022-10-01T20:55:05.131Z,3.95
2022-10-01T20:58:30.170Z,3.58
2022-10-01T21:02:02.258Z,3.70
2022-10-01T21:05:27.753Z,3.55
2022-10-01T21:08:53.554Z,3.58
2022-10-01T21:12:22.629Z,3.45
2022-10-01T21:15:54.813Z,3.25
2022-10-01T21:19:31.616Z,3.20
2022-10-01T21:23:12.480Z,3.00
2022-10-01T21:26:45.376Z,3.40
2022-10-01T21:30:11.604Z,2.92
2022-10-01T21:33:35.450Z,2.78
2022-10-01T21:37:05.191Z,3.50
2022-10-01T21:40:43.483Z,3.60
2022-10-01T21:44:23.607Z,3.55
2022-10-01T21:48:13.451Z,3.38
2022-10-01T21:51:48.537Z,3.40
2022-10-01T21:55:40.603Z,3.10
2022-10-01T21:59:07.254Z,3.45
2022-10-01T22:02:36.977Z,3.38
2022-10-01T22:06:09.721Z,3.08
2022-10-01T22:09:38.426Z,2.97
2022-10-01T22:13:05.333Z,3.22
2022-10-01T22:16:31.711Z,2.97
2022-10-01T22:19:57.604Z,3.20
2022-10-01T22:23:20.807Z,3.20
2022-10-01T22:26:48.124Z,2.88
2022-10-01T22:30:14.117Z,3.53
2022-10-01T22:33:39.831Z,3.50
2022-10-01T22:37:05.769Z,3.33
2022-10-01T22:40:32.089Z,3.15
2022-10-01T22:43:53.613Z,3.00
2022-10-01T22:47:42.041Z,3.33
2022-10-01T22:51:16.182Z,3.10
2022-10-01T22:54:49.875Z,3.03
2022-10-01T22:58:23.805Z,2.97
2022-10-01T23:01:53.631Z,2.92
2022-10-01T23:05:38.077Z,2.47
2022-10-01T23:09:07.687Z,3.22
2022-10-01T23:12:36.649Z,2.80
2022-10-01T23:16:05.793Z,2.95
2022-10-01T23:19:40.019Z,3.13
2022-10-01T23:23:25.189Z,3.13
2022-10-01T23:27:00.932Z,3.03
2022-10-01T23:30:22.930Z,3.20
2022-10-01T23:34:00.185Z,3.25
2022-10-01T23:37:39.310Z,3.03
2022-10-01T23:41:08.734Z,3.10
2022-10-01T23:44:37.400Z,3.20
2022-10-01T23:48:07.124Z,3.30
2022-10-01T23:51:35.325Z,3.00
2022-10-01T23:55:23.195Z,3.38
2022-10-01T23:58:50.604Z,2.92
